createdAt,value
2018-09-01T00:01:28.042Z,12.04
2018-09-01T00:03:56.471Z,11.98
2018-09-01T00:06:25.088Z,12.03
2018-09-01T00:08:53.737Z,11.95
2018-09-01T00:11:22.345Z,11.94
2018-09-01T00:13:50.806Z,11.74
2018-09-01T00:16:19.474Z,11.88
2018-09-01T00:18:48.090Z,11.61
2018-09-01T00:21:16.538Z,11.73
2018-09-01T00:23:45.167Z,11.75
2018-09-01T00:26:13.618Z,11.75
2018-09-01T00:28:42.133Z,11.83
2018-09-01T00:31:10.944Z,11.72
2018-09-01T00:33:39.414Z,11.65
2018-09-01T00:36:07.851Z,11.60
2018-09-01T00:38:41.796Z,11.53
2018-09-01T00:41:10.340Z,11.58
2018-09-01T00:43:38.886Z,11.62
2018-09-01T00:46:07.483Z,11.72
2018-09-01T00:48:35.944Z,11.80
2018-09-01T00:51:04.358Z,11.89
2018-09-01T00:53:32.973Z,11.79
2018-09-01T00:56:01.387Z,11.48
2018-09-01T00:58:29.778Z,11.32
2018-09-01T01:00:58.390Z,11.57
2018-09-01T01:03:26.854Z,11.37
2018-09-01T01:05:55.338Z,11.45
2018-09-01T01:08:24.037Z,11.02
2018-09-01T01:10:52.478Z,11.32
2018-09-01T01:13:20.966Z,11.42
2018-09-01T01:15:49.716Z,11.51
2018-09-01T01:18:18.103Z,11.44
2018-09-01T01:20:46.522Z,11.63
2018-09-01T01:23:15.310Z,11.49
2018-09-01T01:25:43.831Z,11.35
2018-09-01T01:28:12.250Z,11.28
2018-09-01T01:30:40.903Z,11.10
2018-09-01T01:33:09.430Z,11.04
2018-09-01T01:35:37.831Z,11.05
2018-09-01T01:38:06.339Z,11.05
2018-09-01T01:40:34.730Z,10.98
2018-09-01T01:43:03.234Z,10.92
2018-09-01T01:45:31.830Z,10.94
2018-09-01T01:48:00.293Z,10.88
2018-09-01T01:50:28.746Z,10.80
2018-09-01T01:52:57.464Z,10.86
2018-09-01T01:55:25.981Z,10.72
2018-09-01T01:57:54.427Z,10.63
2018-09-01T02:00:22.916Z,10.54
2018-09-01T02:02:51.442Z,10.62
2018-09-01T02:05:21.110Z,10.41
2018-09-01T02:07:50.867Z,10.41
2018-09-01T02:10:19.373Z,10.38
2018-09-01T02:12:47.830Z,10.31
2018-09-01T02:15:16.307Z,10.28
2018-09-01T02:17:44.763Z,10.33
2018-09-01T02:20:13.240Z,10.52
2018-09-01T02:22:41.918Z,10.46
2018-09-01T02:25:10.363Z,10.43
2018-09-01T02:27:38.771Z,10.40
2018-09-01T02:30:07.517Z,10.22
2018-09-01T02:32:35.944Z,10.18
2018-09-01T02:35:04.462Z,10.02
2018-09-01T02:37:32.928Z,10.17
2018-09-01T02:40:01.407Z,10.14
2018-09-01T02:42:29.919Z,10.13
2018-09-01T02:44:58.621Z,10.00
2018-09-01T02:47:27.199Z,10.00
2018-09-01T02:49:55.615Z,10.12
2018-09-01T02:52:24.260Z,10.27
2018-09-01T02:54:52.814Z,10.16
2018-09-01T02:57:21.273Z,10.13
2018-09-01T02:59:49.849Z,10.14
2018-09-01T03:02:23.665Z,9.82
2018-09-01T03:04:52.102Z,9.84
2018-09-01T03:07:20.574Z,9.96
2018-09-01T03:09:49.059Z,10.06
2018-09-01T03:12:17.731Z,10.02
2018-09-01T03:14:46.407Z,10.12
2018-09-01T03:17:14.901Z,9.98
2018-09-01T03:19:43.519Z,9.97
2018-09-01T03:22:11.943Z,9.95
2018-09-01T03:24:40.431Z,10.08
2018-09-01T03:27:08.942Z,10.06
2018-09-01T03:29:37.426Z,9.81
2018-09-01T03:32:06.278Z,10.16
2018-09-01T03:34:34.767Z,9.74
2018-09-01T03:37:03.254Z,9.95
2018-09-01T03:39:31.754Z,9.73
2018-09-01T03:42:00.226Z,9.92
2018-09-01T03:44:28.739Z,9.90
2018-09-01T03:46:57.191Z,9.93
2018-09-01T03:49:25.788Z,9.75
2018-09-01T03:51:54.322Z,9.73
2018-09-01T03:54:22.790Z,9.74
2018-09-01T03:56:51.559Z,9.59
2018-09-01T03:59:20.030Z,9.70
2018-09-01T04:01:48.483Z,9.54
2018-09-01T04:04:16.949Z,9.56
2018-09-01T04:06:45.459Z,9.45
2018-09-01T04:09:14.085Z,9.43
2018-09-01T04:11:42.510Z,9.49
2018-09-01T04:14:11.363Z,9.44
2018-09-01T04:16:39.818Z,9.37
2018-09-01T04:19:15.876Z,9.34
2018-09-01T04:21:44.438Z,9.23
2018-09-01T04:24:13.166Z,9.37
2018-09-01T04:26:41.703Z,9.33
2018-09-01T04:29:10.261Z,9.41
2018-09-01T04:31:38.708Z,9.71
2018-09-01T04:34:07.207Z,9.73
2018-09-01T04:36:35.816Z,9.63
2018-09-01T04:39:05.428Z,9.66
2018-09-01T04:41:34.077Z,9.65
2018-09-01T04:44:02.463Z,9.64
2018-09-01T04:46:31.171Z,9.65
2018-09-01T04:48:59.675Z,9.70
2018-09-01T04:51:28.170Z,9.70
2018-09-01T04:53:56.704Z,9.47
2018-09-01T04:56:25.191Z,9.40
2018-09-01T04:58:53.779Z,9.54
2018-09-01T05:01:22.307Z,9.16
2018-09-01T05:03:50.794Z,9.24
2018-09-01T05:06:19.266Z,9.25
2018-09-01T05:08:47.731Z,9.29
2018-09-01T05:11:16.505Z,9.34
2018-09-01T05:13:45.011Z,9.39
2018-09-01T05:16:13.554Z,9.38
2018-09-01T05:18:42.119Z,9.26
2018-09-01T05:21:10.595Z,9.33
2018-09-01T05:23:38.987Z,9.50
2018-09-01T05:26:07.434Z,9.56
2018-09-01T05:28:36.074Z,9.74
2018-09-01T05:31:04.568Z,9.93
2018-09-01T05:33:33.238Z,9.78
2018-09-01T05:36:01.659Z,10.29
2018-09-01T05:38:30.085Z,10.62
2018-09-01T05:40:58.754Z,11.04
2018-09-01T05:43:27.229Z,11.49
2018-09-01T05:45:55.771Z,11.80
2018-09-01T05:48:24.306Z,12.09
2018-09-01T05:50:52.768Z,12.32
2018-09-01T05:53:21.231Z,12.24
2018-09-01T05:55:49.895Z,12.13
2018-09-01T05:58:18.359Z,12.15
2018-09-01T06:00:47.766Z,12.19
2018-09-01T06:03:16.960Z,12.13
2018-09-01T06:05:45.905Z,12.13
2018-09-01T06:08:14.331Z,12.13
2018-09-01T06:10:43.172Z,12.04
2018-09-01T06:13:11.829Z,12.11
2018-09-01T06:15:40.364Z,12.08
2018-09-01T06:18:09.103Z,12.24
2018-09-01T06:20:37.554Z,12.28
2018-09-01T06:23:06.477Z,12.33
2018-09-01T06:25:34.951Z,12.45
2018-09-01T06:28:08.208Z,12.60
2018-09-01T06:30:39.499Z,12.96
2018-09-01T06:33:08.067Z,12.92
2018-09-01T06:35:36.827Z,13.02
2018-09-01T06:38:05.635Z,13.06
2018-09-01T06:40:34.110Z,13.10
2018-09-01T06:43:02.578Z,12.97
2018-09-01T06:45:31.091Z,12.88
2018-09-01T06:47:59.594Z,12.88
2018-09-01T06:50:28.091Z,13.08
2018-09-01T06:52:56.781Z,13.27
2018-09-01T06:55:25.366Z,13.20
2018-09-01T06:57:53.912Z,13.32
2018-09-01T07:00:24.213Z,13.56
2018-09-01T07:02:54.982Z,13.41
2018-09-01T07:05:23.690Z,13.61
2018-09-01T07:07:52.376Z,13.82
2018-09-01T07:10:21.174Z,13.83
2018-09-01T07:12:49.827Z,13.78
2018-09-01T07:15:18.278Z,13.97
2018-09-01T07:17:46.798Z,14.11
2018-09-01T07:20:15.479Z,14.50
2018-09-01T07:22:44.027Z,14.57
2018-09-01T07:25:12.602Z,14.69
2018-09-01T07:27:41.582Z,14.88
2018-09-01T07:30:11.321Z,15.39
2018-09-01T07:32:40.175Z,15.32
2018-09-01T07:35:08.857Z,15.49
2018-09-01T07:37:37.342Z,15.47
2018-09-01T07:40:05.890Z,15.78
2018-09-01T07:42:34.495Z,15.95
2018-09-01T07:45:03.275Z,16.16
2018-09-01T07:47:31.806Z,16.59
2018-09-01T07:50:00.535Z,16.37
2018-09-01T07:52:28.937Z,16.61
2018-09-01T07:54:57.421Z,16.71
2018-09-01T07:57:26.002Z,16.80
2018-09-01T07:59:54.495Z,17.19
2018-09-01T08:02:23.027Z,17.36
2018-09-01T08:04:51.806Z,17.37
2018-09-01T08:07:20.355Z,17.30
2018-09-01T08:09:49.337Z,17.62
2018-09-01T08:12:17.847Z,17.55
2018-09-01T08:14:46.323Z,17.72
2018-09-01T08:17:14.766Z,17.73
2018-09-01T08:19:43.446Z,18.27
2018-09-01T08:22:11.914Z,17.81
2018-09-01T08:24:40.467Z,18.14
2018-09-01T08:27:09.046Z,18.50
2018-09-01T08:29:37.551Z,18.18
2018-09-01T08:32:06.087Z,18.41
2018-09-01T08:34:34.529Z,18.58
2018-09-01T08:37:03.030Z,19.19
2018-09-01T08:39:31.530Z,19.04
2018-09-01T08:42:00.010Z,18.97
2018-09-01T08:44:28.498Z,18.97
2018-09-01T08:46:56.987Z,19.13
2018-09-01T08:49:25.558Z,19.07
2018-09-01T08:51:54.110Z,18.84
2018-09-01T08:54:22.738Z,19.27
2018-09-01T08:56:51.338Z,19.21
2018-09-01T08:59:19.755Z,19.13
2018-09-01T09:01:48.311Z,19.20
2018-09-01T09:04:16.953Z,18.96
2018-09-01T09:06:45.478Z,19.17
2018-09-01T09:09:13.975Z,19.19
2018-09-01T09:11:42.835Z,19.50
2018-09-01T09:14:11.376Z,19.53
2018-09-01T09:16:39.867Z,19.77
2018-09-01T09:19:08.403Z,19.59
2018-09-01T09:21:36.944Z,19.76
2018-09-01T09:24:05.774Z,19.95
2018-09-01T09:26:34.507Z,19.71
2018-09-01T09:29:02.948Z,19.79
2018-09-01T09:31:31.362Z,19.97
2018-09-01T09:33:59.983Z,19.92
2018-09-01T09:36:28.834Z,19.93
2018-09-01T09:38:57.208Z,19.91
2018-09-01T09:41:25.654Z,19.27
2018-09-01T09:43:54.235Z,19.32
2018-09-01T09:46:22.803Z,19.29
2018-09-01T09:48:51.308Z,19.15
2018-09-01T09:51:19.815Z,19.15
2018-09-01T09:53:48.319Z,19.35
2018-09-01T09:56:16.969Z,19.34
2018-09-01T09:58:45.552Z,19.59
2018-09-01T10:01:19.579Z,19.85
2018-09-01T10:03:48.084Z,19.89
2018-09-01T10:06:16.615Z,19.76
2018-09-01T10:08:45.204Z,19.74
2018-09-01T10:11:13.683Z,20.48
2018-09-01T10:13:42.199Z,20.51
2018-09-01T10:16:10.866Z,20.66
2018-09-01T10:18:39.283Z,20.85
2018-09-01T10:21:07.762Z,20.84
2018-09-01T10:23:36.310Z,20.62
2018-09-01T10:26:04.747Z,20.19
2018-09-01T10:28:33.215Z,20.36
2018-09-01T10:31:01.866Z,20.57
2018-09-01T10:33:30.347Z,20.40
2018-09-01T10:35:58.766Z,20.44
2018-09-01T10:38:27.285Z,20.02
2018-09-01T10:40:55.874Z,19.89
2018-09-01T10:43:24.376Z,19.60
2018-09-01T10:45:52.946Z,19.84
2018-09-01T10:48:21.375Z,20.52
2018-09-01T10:50:49.934Z,20.61
2018-09-01T10:53:18.550Z,21.12
2018-09-01T10:55:47.012Z,20.80
2018-09-01T10:58:15.490Z,20.52
2018-09-01T11:00:44.260Z,21.24
2018-09-01T11:03:12.771Z,20.87
2018-09-01T11:05:41.331Z,20.62
2018-09-01T11:08:09.922Z,20.68
2018-09-01T11:10:38.482Z,20.57
2018-09-01T11:13:06.891Z,20.36
2018-09-01T11:15:35.342Z,20.51
2018-09-01T11:18:03.832Z,20.39
2018-09-01T11:20:32.260Z,20.31
2018-09-01T11:23:01.003Z,20.36
2018-09-01T11:25:29.445Z,20.04
2018-09-01T11:27:57.867Z,20.34
2018-09-01T11:30:26.572Z,20.28
2018-09-01T11:32:55.026Z,20.29
2018-09-01T11:35:23.474Z,20.43
2018-09-01T11:37:51.990Z,20.44
2018-09-01T11:40:20.483Z,20.58
2018-09-01T11:42:49.094Z,20.88
2018-09-01T11:45:17.838Z,21.24
2018-09-01T11:47:46.290Z,21.25
2018-09-01T11:50:16.589Z,21.50
2018-09-01T11:52:45.263Z,21.41
2018-09-01T11:55:13.830Z,21.35
2018-09-01T11:57:42.253Z,21.22
2018-09-01T12:00:10.739Z,21.12
2018-09-01T12:02:39.211Z,21.17
2018-09-01T12:05:07.674Z,21.43
2018-09-01T12:07:36.199Z,21.54
2018-09-01T12:10:04.964Z,21.70
2018-09-01T12:12:33.378Z,21.66
2018-09-01T12:15:02.119Z,21.76
2018-09-01T12:17:30.581Z,21.58
2018-09-01T12:19:59.031Z,21.28
2018-09-01T12:22:27.695Z,20.93
2018-09-01T12:24:56.268Z,21.23
2018-09-01T12:27:24.784Z,21.39
2018-09-01T12:29:53.495Z,21.62
2018-09-01T12:32:21.940Z,21.56
2018-09-01T12:34:50.423Z,21.31
2018-09-01T12:37:19.098Z,21.66
2018-09-01T12:39:47.632Z,21.37
2018-09-01T12:42:16.140Z,21.77
2018-09-01T12:44:44.575Z,21.91
2018-09-01T12:47:13.075Z,22.13
2018-09-01T12:49:41.599Z,22.33
2018-09-01T12:52:10.352Z,22.40
2018-09-01T12:54:38.796Z,21.96
2018-09-01T12:57:07.287Z,21.67
2018-09-01T12:59:35.938Z,21.55
2018-09-01T13:02:04.514Z,21.20
2018-09-01T13:04:32.951Z,21.28
2018-09-01T13:07:01.617Z,21.55
2018-09-01T13:09:30.036Z,21.81
2018-09-01T13:11:58.575Z,21.84
2018-09-01T13:14:27.218Z,22.06
2018-09-01T13:16:55.723Z,22.35
2018-09-01T13:19:24.267Z,22.18
2018-09-01T13:21:53.094Z,22.45
2018-09-01T13:24:21.522Z,22.54
2018-09-01T13:26:50.046Z,22.41
2018-09-01T13:29:18.796Z,21.91
2018-09-01T13:31:47.358Z,21.87
2018-09-01T13:34:15.827Z,21.73
2018-09-01T13:36:44.466Z,21.53
2018-09-01T13:39:12.887Z,21.23
2018-09-01T13:41:41.303Z,21.64
2018-09-01T13:44:09.979Z,21.83
2018-09-01T13:46:38.387Z,22.04
2018-09-01T13:49:06.940Z,21.88
2018-09-01T13:51:35.379Z,21.94
2018-09-01T13:54:03.838Z,22.57
2018-09-01T13:56:32.230Z,22.87
2018-09-01T13:59:00.811Z,22.59
2018-09-01T14:01:29.235Z,22.94
2018-09-01T14:03:57.743Z,23.39
2018-09-01T14:06:26.497Z,23.02
2018-09-01T14:08:54.914Z,22.81
2018-09-01T14:11:23.475Z,22.31
2018-09-01T14:13:52.080Z,22.20
2018-09-01T14:16:20.612Z,21.98
2018-09-01T14:18:49.095Z,21.84
2018-09-01T14:21:17.866Z,21.64
2018-09-01T14:23:46.312Z,21.62
2018-09-01T14:26:14.762Z,21.81
2018-09-01T14:28:43.284Z,21.97
2018-09-01T14:31:11.896Z,21.99
2018-09-01T14:33:40.430Z,22.25
2018-09-01T14:36:09.295Z,22.43
2018-09-01T14:38:37.844Z,22.61
2018-09-01T14:41:06.388Z,22.52
2018-09-01T14:43:35.132Z,22.87
2018-09-01T14:46:03.672Z,22.66
2018-09-01T14:48:32.207Z,22.49
2018-09-01T14:51:00.712Z,22.58
2018-09-01T14:53:29.143Z,22.87
2018-09-01T14:55:57.739Z,22.82
2018-09-01T14:58:26.522Z,23.08
2018-09-01T15:00:55.043Z,22.86
2018-09-01T15:03:23.518Z,22.68
2018-09-01T15:05:52.103Z,22.46
2018-09-01T15:08:20.594Z,22.42
2018-09-01T15:10:49.109Z,22.51
2018-09-01T15:13:17.931Z,22.50
2018-09-01T15:15:46.443Z,22.57
2018-09-01T15:18:14.960Z,22.27
2018-09-01T15:20:43.726Z,22.45
2018-09-01T15:23:12.177Z,22.37
2018-09-01T15:25:40.583Z,22.64
2018-09-01T15:28:09.012Z,22.77
2018-09-01T15:30:37.467Z,22.97
2018-09-01T15:33:05.987Z,22.79
2018-09-01T15:35:34.767Z,22.81
2018-09-01T15:38:03.268Z,22.91
2018-09-01T15:40:37.109Z,22.69
2018-09-01T15:43:05.651Z,22.62
2018-09-01T15:45:34.174Z,22.62
2018-09-01T15:48:02.832Z,22.50
2018-09-01T15:50:31.383Z,22.47
2018-09-01T15:52:59.975Z,22.39
2018-09-01T15:55:28.484Z,22.43
2018-09-01T15:57:57.086Z,22.26
2018-09-01T16:00:25.523Z,22.27
2018-09-01T16:02:53.958Z,22.49
2018-09-01T16:05:22.495Z,22.44
2018-09-01T16:07:50.982Z,22.74
2018-09-01T16:10:19.679Z,22.53
2018-09-01T16:12:48.127Z,22.44
2018-09-01T16:15:16.553Z,22.32
2018-09-01T16:17:45.008Z,22.30
2018-09-01T16:20:13.510Z,22.70
2018-09-01T16:22:41.982Z,22.72
2018-09-01T16:25:10.643Z,22.67
2018-09-01T16:27:39.256Z,22.84
2018-09-01T16:30:07.879Z,22.58
2018-09-01T16:32:36.535Z,22.57
2018-09-01T16:35:05.114Z,22.51
2018-09-01T16:37:33.552Z,22.38
2018-09-01T16:40:02.514Z,22.40
2018-09-01T16:42:30.938Z,22.38
2018-09-01T16:44:59.436Z,22.31
2018-09-01T16:47:28.210Z,22.34
2018-09-01T16:49:56.642Z,22.50
2018-09-01T16:52:25.127Z,22.27
2018-09-01T16:54:53.843Z,22.33
2018-09-01T16:57:22.462Z,22.08
2018-09-01T16:59:50.960Z,22.02
2018-09-01T17:02:19.518Z,22.02
2018-09-01T17:04:47.947Z,22.06
2018-09-01T17:07:16.415Z,22.08
2018-09-01T17:09:45.282Z,21.93
2018-09-01T17:12:13.690Z,21.99
2018-09-01T17:14:42.282Z,21.87
2018-09-01T17:17:10.954Z,21.94
2018-09-01T17:19:39.339Z,21.86
2018-09-01T17:22:08.094Z,21.72
2018-09-01T17:24:36.620Z,21.87
2018-09-01T17:27:05.118Z,21.63
2018-09-01T17:29:33.738Z,21.54
2018-09-01T17:32:02.290Z,21.49
2018-09-01T17:34:30.803Z,21.39
2018-09-01T17:36:59.259Z,21.53
2018-09-01T17:39:28.018Z,21.25
2018-09-01T17:41:56.467Z,20.99
2018-09-01T17:44:24.923Z,21.07
2018-09-01T17:46:53.606Z,20.81
2018-09-01T17:49:22.095Z,20.25
2018-09-01T17:51:50.611Z,20.19
2018-09-01T17:54:19.267Z,20.16
2018-09-01T17:56:47.841Z,20.00
2018-09-01T17:59:16.315Z,20.04
2018-09-01T18:01:45.060Z,19.82
2018-09-01T18:04:13.606Z,19.67
2018-09-01T18:06:42.171Z,19.59
2018-09-01T18:09:11.400Z,19.49
2018-09-01T18:11:39.807Z,19.68
2018-09-01T18:14:08.284Z,19.47
2018-09-01T18:16:37.007Z,18.70
2018-09-01T18:19:05.616Z,18.47
2018-09-01T18:21:34.066Z,18.37
2018-09-01T18:24:02.547Z,18.16
2018-09-01T18:26:31.142Z,17.93
2018-09-01T18:28:59.584Z,17.39
2018-09-01T18:31:28.339Z,17.32
2018-09-01T18:33:56.999Z,17.42
2018-09-01T18:36:25.490Z,17.36
2018-09-01T18:38:54.384Z,17.38
2018-09-01T18:41:22.893Z,17.16
2018-09-01T18:43:51.486Z,17.20
2018-09-01T18:46:19.919Z,17.18
2018-09-01T18:48:48.454Z,17.42
2018-09-01T18:51:17.110Z,17.69
2018-09-01T18:53:45.906Z,17.72
2018-09-01T18:56:14.599Z,17.73
2018-09-01T18:58:43.111Z,17.60
2018-09-01T19:01:11.898Z,17.54
2018-09-01T19:03:40.403Z,17.79
2018-09-01T19:06:08.926Z,17.64
2018-09-01T19:08:37.494Z,17.34
2018-09-01T19:11:05.995Z,17.18
2018-09-01T19:13:34.565Z,17.00
2018-09-01T19:16:03.325Z,16.69
2018-09-01T19:18:31.787Z,16.54
2018-09-01T19:21:00.340Z,16.66
2018-09-01T19:23:28.954Z,16.62
2018-09-01T19:25:57.402Z,16.70
2018-09-01T19:28:25.876Z,16.58
2018-09-01T19:30:54.597Z,16.55
2018-09-01T19:33:23.058Z,16.31
2018-09-01T19:35:51.484Z,16.29
2018-09-01T19:38:20.043Z,15.97
2018-09-01T19:40:48.459Z,15.94
2018-09-01T19:43:16.974Z,15.51
2018-09-01T19:45:45.481Z,15.27
2018-09-01T19:48:13.956Z,15.33
2018-09-01T19:50:42.443Z,15.25
2018-09-01T19:53:11.100Z,15.10
2018-09-01T19:55:39.607Z,15.33
2018-09-01T19:58:08.007Z,15.27
2018-09-01T20:00:36.678Z,15.04
2018-09-01T20:03:05.510Z,14.91
2018-09-01T20:05:33.958Z,14.77
2018-09-01T20:08:02.763Z,14.48
2018-09-01T20:10:31.235Z,14.49
2018-09-01T20:12:59.655Z,14.89
2018-09-01T20:15:28.218Z,14.85
2018-09-01T20:17:56.647Z,14.99
2018-09-01T20:20:25.162Z,14.74
2018-09-01T20:22:53.631Z,14.62
2018-09-01T20:25:22.149Z,14.65
2018-09-01T20:27:50.507Z,14.50
2018-09-01T20:30:19.214Z,14.27
2018-09-01T20:32:48.600Z,14.43
2018-09-01T20:35:22.367Z,14.26
2018-09-01T20:37:50.911Z,14.10
2018-09-01T20:40:19.384Z,14.03
2018-09-01T20:42:47.871Z,13.80
2018-09-01T20:45:16.351Z,13.90
2018-09-01T20:47:44.872Z,13.91
2018-09-01T20:50:13.723Z,14.03
2018-09-01T20:52:42.247Z,14.01
2018-09-01T20:55:10.775Z,13.73
2018-09-01T20:57:39.471Z,13.67
2018-09-01T21:00:07.979Z,13.60
2018-09-01T21:02:36.423Z,13.34
2018-09-01T21:05:04.975Z,13.41
2018-09-01T21:07:33.451Z,13.36
2018-09-01T21:10:02.018Z,13.19
2018-09-01T21:12:30.630Z,13.23
2018-09-01T21:14:59.078Z,13.02
2018-09-01T21:17:27.583Z,13.08
2018-09-01T21:19:56.198Z,13.12
2018-09-01T21:22:24.656Z,12.81
2018-09-01T21:24:53.134Z,12.97
2018-09-01T21:27:21.760Z,12.96
2018-09-01T21:29:50.262Z,12.92
2018-09-01T21:32:18.886Z,12.68
2018-09-01T21:34:47.539Z,12.58
2018-09-01T21:37:16.039Z,12.64
2018-09-01T21:39:44.585Z,12.63
2018-09-01T21:42:13.067Z,12.70
2018-09-01T21:44:41.562Z,12.56
2018-09-01T21:47:10.115Z,12.66
2018-09-01T21:49:38.717Z,12.65
2018-09-01T21:52:07.270Z,12.66
2018-09-01T21:54:35.739Z,12.65
2018-09-01T21:57:04.583Z,12.74
2018-09-01T21:59:33.055Z,12.44
2018-09-01T22:02:06.866Z,12.40
2018-09-01T22:04:40.667Z,12.38
2018-09-01T22:07:09.194Z,12.26
2018-09-01T22:09:37.607Z,12.10
2018-09-01T22:12:06.314Z,12.21
2018-09-01T22:14:34.931Z,12.24
2018-09-01T22:17:03.378Z,12.12
2018-09-01T22:19:31.835Z,12.00
2018-09-01T22:22:00.314Z,11.86
2018-09-01T22:24:28.854Z,11.96
2018-09-01T22:26:57.322Z,11.93
2018-09-01T22:29:25.970Z,11.78
2018-09-01T22:31:54.390Z,11.77
2018-09-01T22:34:22.896Z,11.63
2018-09-01T22:36:51.551Z,11.76
2018-09-01T22:39:19.974Z,11.83
2018-09-01T22:41:48.718Z,11.65
2018-09-01T22:44:17.491Z,11.64
2018-09-01T22:46:46.054Z,11.73
2018-09-01T22:49:14.598Z,11.66
2018-09-01T22:51:43.031Z,11.72
2018-09-01T22:54:11.466Z,11.71
2018-09-01T22:56:40.183Z,11.60
2018-09-01T22:59:08.814Z,11.48
2018-09-01T23:01:37.299Z,11.36
2018-09-01T23:04:05.713Z,11.33
2018-09-01T23:06:34.616Z,11.37
2018-09-01T23:09:03.111Z,11.31
2018-09-01T23:11:31.645Z,11.07
2018-09-01T23:14:00.127Z,11.23
2018-09-01T23:16:28.628Z,11.08
2018-09-01T23:18:57.139Z,11.08
2018-09-01T23:21:25.883Z,11.17
2018-09-01T23:23:54.402Z,11.08
2018-09-01T23:26:23.343Z,11.07
2018-09-01T23:28:52.154Z,11.18
2018-09-01T23:31:20.708Z,10.96
2018-09-01T23:33:49.107Z,10.93
2018-09-01T23:36:17.762Z,11.16
2018-09-01T23:38:46.208Z,10.93
2018-09-01T23:41:14.648Z,10.83
2018-09-01T23:43:43.111Z,10.66
2018-09-01T23:46:11.833Z,10.83
2018-09-01T23:48:40.291Z,10.78
2018-09-01T23:51:08.798Z,10.82
2018-09-01T23:53:37.225Z,10.78
2018-09-01T23:56:05.919Z,10.59
2018-09-01T23:58:34.367Z,10.87
